sensor_id;sensor_type;location;lat;lon;timestamp;P1;durP1;ratioP1;P2;durP2;ratioP2
6598;SDS011;3335;43.198;27.918;2022-08-01T00:02:13;13.13;;;7.37;;
6598;SDS011;3335;43.198;27.918;2022-08-01T00:04:40;13.40;;;7.33;;
6598;SDS011;3335;43.198;27.918;2022-08-01T00:07:07;12.63;;;8.20;;
6598;SDS011;3335;43.198;27.918;2022-08-01T00:09:35;13.20;;;7.87;;
6598;SDS011;3335;43.198;27.918;2022-08-01T00:12:02;16.37;;;8.97;;
6598;SDS011;3335;43.198;27.918;2022-08-01T00:14:30;15.67;;;8.20;;
6598;SDS011;3335;43.198;27.918;2022-08-01T00:16:56;14.83;;;7.80;;
6598;SDS011;3335;43.198;27.918;2022-08-01T00:19:23;12.73;;;8.37;;
6598;SDS011;3335;43.198;27.918;2022-08-01T00:21:50;17.50;;;9.30;;
6598;SDS011;3335;43.198;27.918;2022-08-01T00:24:17;16.80;;;8.87;;
6598;SDS011;3335;43.198;27.918;2022-08-01T00:26:45;14.57;;;8.77;;
6598;SDS011;3335;43.198;27.918;2022-08-01T00:29:12;20.73;;;9.90;;
6598;SDS011;3335;43.198;27.918;2022-08-01T00:31:39;18.70;;;9.77;;
6598;SDS011;3335;43.198;27.918;2022-08-01T00:34:06;20.30;;;11.00;;
6598;SDS011;3335;43.198;27.918;2022-08-01T00:36:33;18.00;;;10.47;;
6598;SDS011;3335;43.198;27.918;2022-08-01T00:39:00;20.57;;;11.37;;
6598;SDS011;3335;43.198;27.918;2022-08-01T00:41:26;28.47;;;14.37;;
6598;SDS011;3335;43.198;27.918;2022-08-01T00:43:55;33.03;;;18.23;;
6598;SDS011;3335;43.198;27.918;2022-08-01T00:46:22;31.83;;;19.53;;
6598;SDS011;3335;43.198;27.918;2022-08-01T00:48:48;35.67;;;19.53;;
6598;SDS011;3335;43.198;27.918;2022-08-01T00:51:15;40.83;;;19.33;;
6598;SDS011;3335;43.198;27.918;2022-08-01T00:53:43;31.57;;;18.03;;
6598;SDS011;3335;43.198;27.918;2022-08-01T00:56:10;30.00;;;16.57;;
6598;SDS011;3335;43.198;27.918;2022-08-01T00:58:37;26.37;;;16.10;;
6598;SDS011;3335;43.198;27.918;2022-08-01T01:01:05;26.70;;;15.10;;
6598;SDS011;3335;43.198;27.918;2022-08-01T01:03:32;24.97;;;14.67;;
6598;SDS011;3335;43.198;27.918;2022-08-01T01:06:03;29.20;;;16.70;;
6598;SDS011;3335;43.198;27.918;2022-08-01T01:08:39;25.57;;;14.93;;
6598;SDS011;3335;43.198;27.918;2022-08-01T01:11:13;24.20;;;14.40;;
6598;SDS011;3335;43.198;27.918;2022-08-01T01:13:49;25.47;;;13.80;;
6598;SDS011;3335;43.198;27.918;2022-08-01T01:16:21;26.50;;;13.53;;
6598;SDS011;3335;43.198;27.918;2022-08-01T01:18:49;24.50;;;13.53;;
6598;SDS011;3335;43.198;27.918;2022-08-01T01:24:21;22.60;;;14.07;;
6598;SDS011;3335;43.198;27.918;2022-08-01T01:27:01;24.87;;;13.53;;
6598;SDS011;3335;43.198;27.918;2022-08-01T01:29:46;23.67;;;12.67;;
6598;SDS011;3335;43.198;27.918;2022-08-01T01:32:17;26.10;;;12.67;;
6598;SDS011;3335;43.198;27.918;2022-08-01T01:34:49;23.43;;;12.80;;
6598;SDS011;3335;43.198;27.918;2022-08-01T01:37:21;22.00;;;12.37;;
6598;SDS011;3335;43.198;27.918;2022-08-01T01:39:51;23.10;;;13.23;;
6598;SDS011;3335;43.198;27.918;2022-08-01T01:42:19;21.40;;;12.77;;
6598;SDS011;3335;43.198;27.918;2022-08-01T01:44:52;21.17;;;12.73;;
6598;SDS011;3335;43.198;27.918;2022-08-01T01:47:20;17.20;;;10.83;;
6598;SDS011;3335;43.198;27.918;2022-08-01T01:49:49;14.07;;;9.30;;
6598;SDS011;3335;43.198;27.918;2022-08-01T01:52:19;13.70;;;9.00;;
6598;SDS011;3335;43.198;27.918;2022-08-01T01:54:49;15.67;;;9.57;;
6598;SDS011;3335;43.198;27.918;2022-08-01T01:57:18;14.33;;;8.63;;
6598;SDS011;3335;43.198;27.918;2022-08-01T01:59:47;16.80;;;8.53;;
6598;SDS011;3335;43.198;27.918;2022-08-01T02:02:18;10.50;;;7.27;;
6598;SDS011;3335;43.198;27.918;2022-08-01T02:04:46;14.43;;;7.73;;
6598;SDS011;3335;43.198;27.918;2022-08-01T02:07:23;10.87;;;7.50;;
6598;SDS011;3335;43.198;27.918;2022-08-01T02:09:52;10.47;;;7.03;;
6598;SDS011;3335;43.198;27.918;2022-08-01T02:12:20;9.83;;;6.93;;
6598;SDS011;3335;43.198;27.918;2022-08-01T02:14:48;10.93;;;6.63;;
6598;SDS011;3335;43.198;27.918;2022-08-01T02:17:20;8.70;;;6.00;;
6598;SDS011;3335;43.198;27.918;2022-08-01T02:19:49;10.83;;;5.97;;
6598;SDS011;3335;43.198;27.918;2022-08-01T02:22:18;10.33;;;6.87;;
6598;SDS011;3335;43.198;27.918;2022-08-01T02:24:52;7.13;;;5.63;;
6598;SDS011;3335;43.198;27.918;2022-08-01T02:27:25;7.10;;;5.63;;
6598;SDS011;3335;43.198;27.918;2022-08-01T02:30:00;5.87;;;4.97;;
6598;SDS011;3335;43.198;27.918;2022-08-01T02:32:33;7.40;;;5.37;;
6598;SDS011;3335;43.198;27.918;2022-08-01T02:35:03;6.20;;;4.50;;
6598;SDS011;3335;43.198;27.918;2022-08-01T02:37:34;6.47;;;4.23;;
6598;SDS011;3335;43.198;27.918;2022-08-01T02:40:04;5.77;;;4.37;;
6598;SDS011;3335;43.198;27.918;2022-08-01T02:42:34;6.93;;;3.90;;
6598;SDS011;3335;43.198;27.918;2022-08-01T02:45:04;8.17;;;4.43;;
6598;SDS011;3335;43.198;27.918;2022-08-01T02:47:35;4.03;;;3.63;;
6598;SDS011;3335;43.198;27.918;2022-08-01T02:50:04;6.03;;;4.30;;
6598;SDS011;3335;43.198;27.918;2022-08-01T02:52:33;6.43;;;3.30;;
6598;SDS011;3335;43.198;27.918;2022-08-01T02:55:02;4.27;;;3.00;;
6598;SDS011;3335;43.198;27.918;2022-08-01T02:57:31;3.93;;;3.30;;
6598;SDS011;3335;43.198;27.918;2022-08-01T03:00:00;3.37;;;3.03;;
6598;SDS011;3335;43.198;27.918;2022-08-01T03:02:28;3.47;;;2.87;;
6598;SDS011;3335;43.198;27.918;2022-08-01T03:04:58;3.80;;;3.13;;
6598;SDS011;3335;43.198;27.918;2022-08-01T03:07:27;8.10;;;3.57;;
6598;SDS011;3335;43.198;27.918;2022-08-01T03:09:55;5.03;;;2.80;;
6598;SDS011;3335;43.198;27.918;2022-08-01T03:12:26;4.87;;;2.93;;
6598;SDS011;3335;43.198;27.918;2022-08-01T03:14:56;2.90;;;2.60;;
6598;SDS011;3335;43.198;27.918;2022-08-01T03:17:26;3.40;;;3.10;;
6598;SDS011;3335;43.198;27.918;2022-08-01T03:19:55;2.90;;;2.60;;
6598;SDS011;3335;43.198;27.918;2022-08-01T03:22:28;5.77;;;2.77;;
6598;SDS011;3335;43.198;27.918;2022-08-01T03:24:56;3.30;;;3.00;;
6598;SDS011;3335;43.198;27.918;2022-08-01T03:27:25;4.07;;;2.53;;
6598;SDS011;3335;43.198;27.918;2022-08-01T03:29:54;2.87;;;2.60;;
6598;SDS011;3335;43.198;27.918;2022-08-01T03:32:22;7.63;;;2.60;;
6598;SDS011;3335;43.198;27.918;2022-08-01T03:34:51;3.77;;;2.67;;
6598;SDS011;3335;43.198;27.918;2022-08-01T03:37:21;4.10;;;2.77;;
6598;SDS011;3335;43.198;27.918;2022-08-01T03:39:52;4.03;;;2.63;;
6598;SDS011;3335;43.198;27.918;2022-08-01T03:42:24;5.87;;;2.60;;
6598;SDS011;3335;43.198;27.918;2022-08-01T03:44:58;3.73;;;2.57;;
6598;SDS011;3335;43.198;27.918;2022-08-01T03:47:29;2.77;;;2.57;;
6598;SDS011;3335;43.198;27.918;2022-08-01T03:49:58;3.63;;;3.07;;
6598;SDS011;3335;43.198;27.918;2022-08-01T03:52:28;10.37;;;3.13;;
6598;SDS011;3335;43.198;27.918;2022-08-01T03:54:57;5.97;;;2.93;;
6598;SDS011;3335;43.198;27.918;2022-08-01T03:57:27;3.37;;;2.33;;
6598;SDS011;3335;43.198;27.918;2022-08-01T03:59:56;2.67;;;2.43;;
6598;SDS011;3335;43.198;27.918;2022-08-01T04:02:25;4.37;;;2.93;;
6598;SDS011;3335;43.198;27.918;2022-08-01T04:04:53;4.33;;;2.60;;
6598;SDS011;3335;43.198;27.918;2022-08-01T04:07:21;4.30;;;2.13;;
6598;SDS011;3335;43.198;27.918;2022-08-01T04:09:50;4.90;;;2.50;;
6598;SDS011;3335;43.198;27.918;2022-08-01T04:12:18;2.60;;;2.40;;
6598;SDS011;3335;43.198;27.918;2022-08-01T04:14:45;4.73;;;2.67;;
6598;SDS011;3335;43.198;27.918;2022-08-01T04:17:12;3.63;;;2.73;;
6598;SDS011;3335;43.198;27.918;2022-08-01T04:19:40;2.77;;;2.47;;
6598;SDS011;3335;43.198;27.918;2022-08-01T04:22:07;5.73;;;2.57;;
6598;SDS011;3335;43.198;27.918;2022-08-01T04:24:36;2.70;;;2.50;;
6598;SDS011;3335;43.198;27.918;2022-08-01T04:27:07;3.17;;;2.67;;
6598;SDS011;3335;43.198;27.918;2022-08-01T04:29:38;6.17;;;2.60;;
6598;SDS011;3335;43.198;27.918;2022-08-01T04:32:06;3.37;;;2.57;;
6598;SDS011;3335;43.198;27.918;2022-08-01T04:34:35;3.33;;;2.50;;
6598;SDS011;3335;43.198;27.918;2022-08-01T04:37:06;3.87;;;2.70;;
6598;SDS011;3335;43.198;27.918;2022-08-01T04:39:35;2.63;;;2.40;;
6598;SDS011;3335;43.198;27.918;2022-08-01T04:42:05;4.77;;;2.20;;
6598;SDS011;3335;43.198;27.918;2022-08-01T04:44:33;2.83;;;2.43;;
6598;SDS011;3335;43.198;27.918;2022-08-01T04:47:00;2.60;;;2.40;;
6598;SDS011;3335;43.198;27.918;2022-08-01T04:49:29;5.17;;;2.00;;
6598;SDS011;3335;43.198;27.918;2022-08-01T04:51:57;2.77;;;2.33;;
6598;SDS011;3335;43.198;27.918;2022-08-01T04:54:25;2.90;;;2.57;;
6598;SDS011;3335;43.198;27.918;2022-08-01T04:56:52;3.37;;;2.20;;
6598;SDS011;3335;43.198;27.918;2022-08-01T04:59:22;4.90;;;2.10;;
6598;SDS011;3335;43.198;27.918;2022-08-01T05:02:08;5.07;;;2.83;;
6598;SDS011;3335;43.198;27.918;2022-08-01T05:04:36;2.33;;;1.90;;
6598;SDS011;3335;43.198;27.918;2022-08-01T05:07:05;2.80;;;2.20;;
6598;SDS011;3335;43.198;27.918;2022-08-01T05:09:33;2.10;;;1.90;;
6598;SDS011;3335;43.198;27.918;2022-08-01T05:12:01;5.00;;;2.07;;
6598;SDS011;3335;43.198;27.918;2022-08-01T05:14:31;2.17;;;1.90;;
6598;SDS011;3335;43.198;27.918;2022-08-01T05:16:58;2.90;;;2.00;;
6598;SDS011;3335;43.198;27.918;2022-08-01T05:19:28;6.77;;;2.10;;
6598;SDS011;3335;43.198;27.918;2022-08-01T05:21:55;2.03;;;1.87;;
6598;SDS011;3335;43.198;27.918;2022-08-01T05:24:22;2.20;;;1.80;;
6598;SDS011;3335;43.198;27.918;2022-08-01T05:26:49;2.00;;;1.87;;
6598;SDS011;3335;43.198;27.918;2022-08-01T05:29:16;7.60;;;2.13;;
6598;SDS011;3335;43.198;27.918;2022-08-01T05:31:44;2.40;;;1.93;;
6598;SDS011;3335;43.198;27.918;2022-08-01T05:34:11;3.00;;;1.80;;
6598;SDS011;3335;43.198;27.918;2022-08-01T05:36:38;1.93;;;1.77;;
6598;SDS011;3335;43.198;27.918;2022-08-01T13:17:52;1.10;;;1.10;;
6598;SDS011;3335;43.198;27.918;2022-08-01T13:20:21;2.58;;;1.08;;
6598;SDS011;3335;43.198;27.918;2022-08-01T13:22:52;0.95;;;0.85;;
6598;SDS011;3335;43.198;27.918;2022-08-01T13:25:19;4.82;;;1.33;;
6598;SDS011;3335;43.198;27.918;2022-08-01T13:27:46;2.35;;;1.20;;
6598;SDS011;3335;43.198;27.918;2022-08-01T13:30:13;3.50;;;1.35;;
6598;SDS011;3335;43.198;27.918;2022-08-01T13:32:41;2.33;;;1.40;;
6598;SDS011;3335;43.198;27.918;2022-08-01T13:35:11;1.85;;;1.52;;
6598;SDS011;3335;43.198;27.918;2022-08-01T13:37:39;1.30;;;1.10;;
6598;SDS011;3335;43.198;27.918;2022-08-01T13:40:09;4.60;;;1.38;;
6598;SDS011;3335;43.198;27.918;2022-08-01T13:42:37;1.70;;;1.20;;
6598;SDS011;3335;43.198;27.918;2022-08-01T13:45:04;1.88;;;1.35;;
6598;SDS011;3335;43.198;27.918;2022-08-01T13:47:35;1.85;;;1.00;;
6598;SDS011;3335;43.198;27.918;2022-08-01T13:50:03;1.20;;;1.10;;
6598;SDS011;3335;43.198;27.918;2022-08-01T13:52:32;2.25;;;1.98;;
6598;SDS011;3335;43.198;27.918;2022-08-01T13:54:59;1.40;;;1.30;;
6598;SDS011;3335;43.198;27.918;2022-08-01T13:57:27;2.33;;;1.38;;
6598;SDS011;3335;43.198;27.918;2022-08-01T13:59:54;7.18;;;2.50;;
6598;SDS011;3335;43.198;27.918;2022-08-01T14:02:24;3.25;;;1.75;;
6598;SDS011;3335;43.198;27.918;2022-08-01T14:04:51;1.65;;;1.33;;
6598;SDS011;3335;43.198;27.918;2022-08-01T14:07:19;4.32;;;1.48;;
6598;SDS011;3335;43.198;27.918;2022-08-01T14:09:47;2.10;;;1.35;;
6598;SDS011;3335;43.198;27.918;2022-08-01T14:12:14;1.42;;;1.17;;
6598;SDS011;3335;43.198;27.918;2022-08-01T14:14:41;2.55;;;1.20;;
6598;SDS011;3335;43.198;27.918;2022-08-01T14:17:08;1.13;;;1.02;;
6598;SDS011;3335;43.198;27.918;2022-08-01T14:19:35;2.08;;;1.25;;
6598;SDS011;3335;43.198;27.918;2022-08-01T14:22:01;1.92;;;1.70;;
6598;SDS011;3335;43.198;27.918;2022-08-01T14:24:28;1.80;;;1.70;;
6598;SDS011;3335;43.198;27.918;2022-08-01T14:26:57;3.63;;;1.80;;
6598;SDS011;3335;43.198;27.918;2022-08-01T14:29:23;2.30;;;1.45;;
6598;SDS011;3335;43.198;27.918;2022-08-01T14:31:51;2.05;;;1.60;;
6598;SDS011;3335;43.198;27.918;2022-08-01T14:34:18;1.85;;;1.55;;
6598;SDS011;3335;43.198;27.918;2022-08-01T14:36:45;2.20;;;2.00;;
6598;SDS011;3335;43.198;27.918;2022-08-01T14:39:11;5.53;;;1.60;;
6598;SDS011;3335;43.198;27.918;2022-08-01T14:41:39;1.40;;;1.30;;
6598;SDS011;3335;43.198;27.918;2022-08-01T14:44:07;4.05;;;1.60;;
6598;SDS011;3335;43.198;27.918;2022-08-01T14:46:34;2.10;;;1.80;;
6598;SDS011;3335;43.198;27.918;2022-08-01T14:49:01;2.00;;;1.80;;
6598;SDS011;3335;43.198;27.918;2022-08-01T14:51:28;1.92;;;1.67;;
6598;SDS011;3335;43.198;27.918;2022-08-01T14:53:58;1.85;;;1.42;;
6598;SDS011;3335;43.198;27.918;2022-08-01T14:56:25;1.60;;;1.20;;
6598;SDS011;3335;43.198;27.918;2022-08-01T14:58:52;2.20;;;1.55;;
6598;SDS011;3335;43.198;27.918;2022-08-01T15:01:20;1.77;;;1.55;;
6598;SDS011;3335;43.198;27.918;2022-08-01T15:03:47;2.30;;;1.95;;
6598;SDS011;3335;43.198;27.918;2022-08-01T15:06:15;3.00;;;1.92;;
6598;SDS011;3335;43.198;27.918;2022-08-01T15:08:43;1.70;;;1.42;;
6598;SDS011;3335;43.198;27.918;2022-08-01T15:11:10;3.73;;;1.80;;
6598;SDS011;3335;43.198;27.918;2022-08-01T15:13:37;2.07;;;1.87;;
6598;SDS011;3335;43.198;27.918;2022-08-01T15:16:04;2.13;;;1.60;;
6598;SDS011;3335;43.198;27.918;2022-08-01T15:18:32;5.00;;;2.83;;
6598;SDS011;3335;43.198;27.918;2022-08-01T15:20:59;4.50;;;3.87;;
6598;SDS011;3335;43.198;27.918;2022-08-01T15:23:26;11.17;;;3.77;;
6598;SDS011;3335;43.198;27.918;2022-08-01T15:25:53;3.30;;;3.00;;
6598;SDS011;3335;43.198;27.918;2022-08-01T15:28:20;3.58;;;3.20;;
6598;SDS011;3335;43.198;27.918;2022-08-01T15:30:47;3.57;;;3.27;;
6598;SDS011;3335;43.198;27.918;2022-08-01T15:33:14;7.03;;;3.60;;
6598;SDS011;3335;43.198;27.918;2022-08-01T15:35:43;8.25;;;5.75;;
6598;SDS011;3335;43.198;27.918;2022-08-01T15:38:10;3.58;;;3.13;;
6598;SDS011;3335;43.198;27.918;2022-08-01T15:40:37;3.45;;;2.90;;
6598;SDS011;3335;43.198;27.918;2022-08-01T15:43:03;5.13;;;2.78;;
6598;SDS011;3335;43.198;27.918;2022-08-01T15:45:30;3.10;;;2.80;;
6598;SDS011;3335;43.198;27.918;2022-08-01T15:47:58;3.33;;;2.75;;
6598;SDS011;3335;43.198;27.918;2022-08-01T15:50:24;3.45;;;3.15;;
6598;SDS011;3335;43.198;27.918;2022-08-01T15:52:53;5.77;;;2.87;;
6598;SDS011;3335;43.198;27.918;2022-08-01T15:55:20;4.80;;;3.47;;
6598;SDS011;3335;43.198;27.918;2022-08-01T15:57:46;6.22;;;3.92;;
6598;SDS011;3335;43.198;27.918;2022-08-01T16:00:13;5.68;;;3.03;;
6598;SDS011;3335;43.198;27.918;2022-08-01T16:02:40;4.67;;;3.63;;
6598;SDS011;3335;43.198;27.918;2022-08-01T16:05:07;4.60;;;3.70;;
6598;SDS011;3335;43.198;27.918;2022-08-01T16:07:35;4.20;;;3.73;;
6598;SDS011;3335;43.198;27.918;2022-08-01T16:10:04;11.93;;;6.33;;
6598;SDS011;3335;43.198;27.918;2022-08-01T16:12:32;5.53;;;4.80;;
6598;SDS011;3335;43.198;27.918;2022-08-01T16:14:59;5.57;;;3.10;;
6598;SDS011;3335;43.198;27.918;2022-08-01T16:17:26;6.17;;;3.60;;
6598;SDS011;3335;43.198;27.918;2022-08-01T16:19:52;3.80;;;3.40;;
6598;SDS011;3335;43.198;27.918;2022-08-01T16:22:19;3.70;;;3.20;;
6598;SDS011;3335;43.198;27.918;2022-08-01T16:24:46;3.33;;;3.03;;
6598;SDS011;3335;43.198;27.918;2022-08-01T16:27:14;4.17;;;3.30;;
6598;SDS011;3335;43.198;27.918;2022-08-01T16:29:41;5.43;;;3.27;;
6598;SDS011;3335;43.198;27.918;2022-08-01T16:32:08;3.50;;;3.20;;
6598;SDS011;3335;43.198;27.918;2022-08-01T16:34:35;4.83;;;3.47;;
6598;SDS011;3335;43.198;27.918;2022-08-01T16:37:03;5.80;;;4.63;;
6598;SDS011;3335;43.198;27.918;2022-08-01T16:39:30;4.63;;;4.03;;
6598;SDS011;3335;43.198;27.918;2022-08-01T16:41:56;5.43;;;3.33;;
6598;SDS011;3335;43.198;27.918;2022-08-01T16:44:25;3.47;;;3.10;;
6598;SDS011;3335;43.198;27.918;2022-08-01T16:46:52;3.20;;;2.90;;
6598;SDS011;3335;43.198;27.918;2022-08-01T16:49:18;3.37;;;3.00;;
6598;SDS011;3335;43.198;27.918;2022-08-01T16:51:45;3.10;;;2.80;;
6598;SDS011;3335;43.198;27.918;2022-08-01T16:54:12;3.67;;;2.40;;
6598;SDS011;3335;43.198;27.918;2022-08-01T16:56:39;4.00;;;2.87;;
6598;SDS011;3335;43.198;27.918;2022-08-01T16:59:06;2.83;;;2.63;;
6598;SDS011;3335;43.198;27.918;2022-08-01T17:01:34;6.00;;;2.60;;
6598;SDS011;3335;43.198;27.918;2022-08-01T17:04:02;3.13;;;2.30;;
6598;SDS011;3335;43.198;27.918;2022-08-01T17:06:29;2.57;;;2.37;;
6598;SDS011;3335;43.198;27.918;2022-08-01T17:08:56;3.30;;;2.50;;
6598;SDS011;3335;43.198;27.918;2022-08-01T17:11:23;4.10;;;2.83;;
6598;SDS011;3335;43.198;27.918;2022-08-01T17:13:50;2.57;;;2.37;;
6598;SDS011;3335;43.198;27.918;2022-08-01T17:16:16;2.40;;;2.20;;
6598;SDS011;3335;43.198;27.918;2022-08-01T17:18:45;4.73;;;2.40;;
6598;SDS011;3335;43.198;27.918;2022-08-01T17:21:12;3.37;;;2.70;;
6598;SDS011;3335;43.198;27.918;2022-08-01T17:23:39;4.23;;;2.60;;
6598;SDS011;3335;43.198;27.918;2022-08-01T17:26:06;4.07;;;2.97;;
6598;SDS011;3335;43.198;27.918;2022-08-01T17:28:32;2.97;;;2.67;;
6598;SDS011;3335;43.198;27.918;2022-08-01T17:30:59;2.83;;;2.53;;
6598;SDS011;3335;43.198;27.918;2022-08-01T17:33:26;2.70;;;2.50;;
6598;SDS011;3335;43.198;27.918;2022-08-01T17:35:54;3.07;;;2.77;;
6598;SDS011;3335;43.198;27.918;2022-08-01T17:38:21;3.67;;;3.13;;
6598;SDS011;3335;43.198;27.918;2022-08-01T17:40:48;6.20;;;3.17;;
6598;SDS011;3335;43.198;27.918;2022-08-01T17:43:15;3.33;;;2.70;;
6598;SDS011;3335;43.198;27.918;2022-08-01T17:45:42;4.10;;;3.30;;
6598;SDS011;3335;43.198;27.918;2022-08-01T17:48:09;3.47;;;3.00;;
6598;SDS011;3335;43.198;27.918;2022-08-01T17:50:40;6.30;;;3.77;;
6598;SDS011;3335;43.198;27.918;2022-08-01T17:53:09;4.27;;;2.80;;
6598;SDS011;3335;43.198;27.918;2022-08-01T17:55:36;5.27;;;2.60;;
6598;SDS011;3335;43.198;27.918;2022-08-01T17:58:05;3.87;;;3.07;;
6598;SDS011;3335;43.198;27.918;2022-08-01T18:00:33;3.17;;;2.80;;
6598;SDS011;3335;43.198;27.918;2022-08-01T18:03:01;2.63;;;2.30;;
6598;SDS011;3335;43.198;27.918;2022-08-01T18:05:29;3.00;;;2.47;;
6598;SDS011;3335;43.198;27.918;2022-08-01T18:07:56;3.37;;;3.07;;
6598;SDS011;3335;43.198;27.918;2022-08-01T18:10:26;6.30;;;4.20;;
6598;SDS011;3335;43.198;27.918;2022-08-01T18:12:53;7.57;;;3.40;;
6598;SDS011;3335;43.198;27.918;2022-08-01T18:15:19;5.70;;;3.57;;
6598;SDS011;3335;43.198;27.918;2022-08-01T18:17:47;5.13;;;3.60;;
6598;SDS011;3335;43.198;27.918;2022-08-01T18:20:14;6.60;;;4.07;;
6598;SDS011;3335;43.198;27.918;2022-08-01T18:22:40;4.60;;;3.43;;
6598;SDS011;3335;43.198;27.918;2022-08-01T18:25:08;3.83;;;3.07;;
6598;SDS011;3335;43.198;27.918;2022-08-01T18:27:36;4.00;;;3.00;;
6598;SDS011;3335;43.198;27.918;2022-08-01T18:30:04;4.40;;;2.80;;
6598;SDS011;3335;43.198;27.918;2022-08-01T18:32:31;5.10;;;4.00;;
6598;SDS011;3335;43.198;27.918;2022-08-01T18:34:58;4.27;;;3.40;;
6598;SDS011;3335;43.198;27.918;2022-08-01T18:37:25;4.77;;;3.23;;
6598;SDS011;3335;43.198;27.918;2022-08-01T18:39:52;3.60;;;3.20;;
6598;SDS011;3335;43.198;27.918;2022-08-01T18:42:19;4.90;;;3.60;;
6598;SDS011;3335;43.198;27.918;2022-08-01T18:44:47;7.20;;;4.50;;
6598;SDS011;3335;43.198;27.918;2022-08-01T18:47:14;5.07;;;4.43;;
6598;SDS011;3335;43.198;27.918;2022-08-01T18:49:41;5.10;;;3.97;;
6598;SDS011;3335;43.198;27.918;2022-08-01T18:52:08;4.33;;;3.77;;
6598;SDS011;3335;43.198;27.918;2022-08-01T18:54:35;3.93;;;3.47;;
6598;SDS011;3335;43.198;27.918;2022-08-01T18:57:02;4.77;;;3.60;;
6598;SDS011;3335;43.198;27.918;2022-08-01T18:59:29;2.77;;;2.57;;
6598;SDS011;3335;43.198;27.918;2022-08-01T19:01:57;3.13;;;2.70;;
6598;SDS011;3335;43.198;27.918;2022-08-01T19:04:24;3.57;;;2.87;;
6598;SDS011;3335;43.198;27.918;2022-08-01T19:06:52;6.20;;;4.60;;
6598;SDS011;3335;43.198;27.918;2022-08-01T19:09:18;3.80;;;3.17;;
6598;SDS011;3335;43.198;27.918;2022-08-01T19:11:47;4.17;;;3.50;;
6598;SDS011;3335;43.198;27.918;2022-08-01T19:14:14;3.90;;;3.27;;
6598;SDS011;3335;43.198;27.918;2022-08-01T19:16:41;5.13;;;3.53;;
6598;SDS011;3335;43.198;27.918;2022-08-01T19:19:09;4.10;;;3.47;;
6598;SDS011;3335;43.198;27.918;2022-08-01T19:21:36;4.37;;;3.57;;
6598;SDS011;3335;43.198;27.918;2022-08-01T19:24:05;5.50;;;3.47;;
6598;SDS011;3335;43.198;27.918;2022-08-01T19:26:46;3.90;;;3.50;;
6598;SDS011;3335;43.198;27.918;2022-08-01T19:29:15;4.80;;;3.97;;
6598;SDS011;3335;43.198;27.918;2022-08-01T19:31:45;4.60;;;3.67;;
6598;SDS011;3335;43.198;27.918;2022-08-01T19:34:15;4.30;;;3.77;;
6598;SDS011;3335;43.198;27.918;2022-08-01T19:36:43;6.60;;;3.77;;
6598;SDS011;3335;43.198;27.918;2022-08-01T19:39:12;4.50;;;4.10;;
6598;SDS011;3335;43.198;27.918;2022-08-01T19:41:41;5.27;;;4.30;;
6598;SDS011;3335;43.198;27.918;2022-08-01T19:44:10;8.93;;;4.70;;
6598;SDS011;3335;43.198;27.918;2022-08-01T19:46:38;8.73;;;4.63;;
6598;SDS011;3335;43.198;27.918;2022-08-01T19:49:05;5.97;;;4.37;;
6598;SDS011;3335;43.198;27.918;2022-08-01T19:51:34;5.53;;;4.87;;
6598;SDS011;3335;43.198;27.918;2022-08-01T19:54:06;6.30;;;4.40;;
6598;SDS011;3335;43.198;27.918;2022-08-01T19:56:36;7.90;;;4.53;;
6598;SDS011;3335;43.198;27.918;2022-08-01T19:59:09;8.53;;;5.40;;
6598;SDS011;3335;43.198;27.918;2022-08-01T20:01:40;6.93;;;5.23;;
6598;SDS011;3335;43.198;27.918;2022-08-01T20:04:07;8.03;;;5.10;;
6598;SDS011;3335;43.198;27.918;2022-08-01T20:06:36;6.73;;;4.47;;
6598;SDS011;3335;43.198;27.918;2022-08-01T20:09:05;8.20;;;5.50;;
6598;SDS011;3335;43.198;27.918;2022-08-01T20:11:32;6.90;;;4.60;;
6598;SDS011;3335;43.198;27.918;2022-08-01T20:14:00;6.97;;;5.00;;
6598;SDS011;3335;43.198;27.918;2022-08-01T20:16:27;9.17;;;5.53;;
6598;SDS011;3335;43.198;27.918;2022-08-01T20:18:56;7.43;;;5.13;;
6598;SDS011;3335;43.198;27.918;2022-08-01T20:21:24;11.30;;;6.17;;
6598;SDS011;3335;43.198;27.918;2022-08-01T20:23:54;4.77;;;4.20;;
6598;SDS011;3335;43.198;27.918;2022-08-01T20:26:24;6.60;;;5.07;;
6598;SDS011;3335;43.198;27.918;2022-08-01T20:28:53;6.97;;;4.30;;
6598;SDS011;3335;43.198;27.918;2022-08-01T20:31:21;8.37;;;4.97;;
6598;SDS011;3335;43.198;27.918;2022-08-01T20:33:51;6.93;;;5.00;;
6598;SDS011;3335;43.198;27.918;2022-08-01T20:36:18;6.10;;;4.67;;
6598;SDS011;3335;43.198;27.918;2022-08-01T20:38:47;5.63;;;4.43;;
6598;SDS011;3335;43.198;27.918;2022-08-01T20:41:18;7.37;;;4.83;;
6598;SDS011;3335;43.198;27.918;2022-08-01T20:43:49;7.10;;;4.73;;
6598;SDS011;3335;43.198;27.918;2022-08-01T20:46:20;6.37;;;4.63;;
6598;SDS011;3335;43.198;27.918;2022-08-01T20:48:49;7.10;;;5.10;;
6598;SDS011;3335;43.198;27.918;2022-08-01T20:51:19;8.80;;;5.27;;
6598;SDS011;3335;43.198;27.918;2022-08-01T20:53:48;7.03;;;5.00;;
6598;SDS011;3335;43.198;27.918;2022-08-01T20:56:21;5.57;;;4.50;;
6598;SDS011;3335;43.198;27.918;2022-08-01T20:58:57;5.13;;;4.03;;
6598;SDS011;3335;43.198;27.918;2022-08-01T21:01:29;4.47;;;3.97;;
6598;SDS011;3335;43.198;27.918;2022-08-01T21:04:09;6.67;;;4.00;;
6598;SDS011;3335;43.198;27.918;2022-08-01T21:06:45;3.77;;;3.37;;
6598;SDS011;3335;43.198;27.918;2022-08-01T21:09:19;5.30;;;3.80;;
6598;SDS011;3335;43.198;27.918;2022-08-01T21:12:01;5.37;;;4.50;;
6598;SDS011;3335;43.198;27.918;2022-08-01T21:14:32;7.77;;;4.77;;
6598;SDS011;3335;43.198;27.918;2022-08-01T21:17:16;5.43;;;4.53;;
6598;SDS011;3335;43.198;27.918;2022-08-01T21:19:44;6.13;;;5.00;;
6598;SDS011;3335;43.198;27.918;2022-08-01T21:22:18;6.53;;;4.80;;
6598;SDS011;3335;43.198;27.918;2022-08-01T21:24:50;7.27;;;4.87;;
6598;SDS011;3335;43.198;27.918;2022-08-01T21:27:23;12.77;;;6.73;;
6598;SDS011;3335;43.198;27.918;2022-08-01T21:29:52;8.27;;;5.57;;
6598;SDS011;3335;43.198;27.918;2022-08-01T21:32:20;7.90;;;5.27;;
6598;SDS011;3335;43.198;27.918;2022-08-01T21:34:49;6.67;;;4.53;;
6598;SDS011;3335;43.198;27.918;2022-08-01T21:37:16;8.20;;;4.87;;
6598;SDS011;3335;43.198;27.918;2022-08-01T21:39:44;8.50;;;5.60;;
6598;SDS011;3335;43.198;27.918;2022-08-01T21:42:12;5.87;;;5.10;;
6598;SDS011;3335;43.198;27.918;2022-08-01T21:44:42;7.33;;;4.90;;
6598;SDS011;3335;43.198;27.918;2022-08-01T21:47:11;6.40;;;4.53;;
6598;SDS011;3335;43.198;27.918;2022-08-01T21:49:39;6.07;;;4.77;;
6598;SDS011;3335;43.198;27.918;2022-08-01T21:52:07;4.10;;;3.70;;
6598;SDS011;3335;43.198;27.918;2022-08-01T21:54:43;6.30;;;4.73;;
6598;SDS011;3335;43.198;27.918;2022-08-01T21:57:20;7.13;;;4.97;;
6598;SDS011;3335;43.198;27.918;2022-08-01T22:00:07;6.07;;;4.50;;
6598;SDS011;3335;43.198;27.918;2022-08-01T22:02:37;6.53;;;4.90;;
6598;SDS011;3335;43.198;27.918;2022-08-01T22:05:10;5.60;;;4.47;;
6598;SDS011;3335;43.198;27.918;2022-08-01T22:07:39;5.57;;;4.23;;
6598;SDS011;3335;43.198;27.918;2022-08-01T22:10:10;6.00;;;4.70;;
6598;SDS011;3335;43.198;27.918;2022-08-01T22:12:39;4.97;;;4.43;;
6598;SDS011;3335;43.198;27.918;2022-08-01T22:15:08;6.70;;;4.40;;
6598;SDS011;3335;43.198;27.918;2022-08-01T22:17:38;4.97;;;4.37;;
6598;SDS011;3335;43.198;27.918;2022-08-01T22:20:06;5.53;;;4.30;;
6598;SDS011;3335;43.198;27.918;2022-08-01T22:22:34;6.13;;;5.03;;
6598;SDS011;3335;43.198;27.918;2022-08-01T22:25:01;4.93;;;4.20;;
6598;SDS011;3335;43.198;27.918;2022-08-01T22:27:28;7.10;;;4.70;;
6598;SDS011;3335;43.198;27.918;2022-08-01T22:29:57;5.23;;;4.70;;
6598;SDS011;3335;43.198;27.918;2022-08-01T22:32:30;7.43;;;4.60;;
6598;SDS011;3335;43.198;27.918;2022-08-01T22:34:58;6.37;;;4.90;;
6598;SDS011;3335;43.198;27.918;2022-08-01T22:37:26;8.50;;;4.80;;
6598;SDS011;3335;43.198;27.918;2022-08-01T22:39:56;7.67;;;4.93;;
6598;SDS011;3335;43.198;27.918;2022-08-01T22:42:26;6.90;;;4.47;;
6598;SDS011;3335;43.198;27.918;2022-08-01T22:44:57;9.77;;;5.03;;
6598;SDS011;3335;43.198;27.918;2022-08-01T22:47:34;7.67;;;4.93;;
6598;SDS011;3335;43.198;27.918;2022-08-01T22:50:15;7.50;;;5.20;;